createdAt,value
2018-09-12T04:01:00.357Z,84.16
2018-09-12T04:02:00.229Z,84.16
2018-09-12T04:03:52.937Z,84.63
2018-09-12T04:04:52.814Z,84.11
2018-09-12T04:06:45.511Z,84.30
2018-09-12T04:07:45.392Z,84.21
2018-09-12T04:09:38.073Z,84.50
2018-09-12T04:10:37.969Z,85.07
2018-09-12T04:12:30.669Z,85.07
2018-09-12T04:13:30.549Z,85.07
2018-09-12T04:15:23.221Z,85.55
2018-09-12T04:16:23.127Z,85.46
2018-09-12T04:18:15.816Z,85.46
2018-09-12T04:19:15.695Z,85.27
2018-09-12T04:21:08.379Z,85.27
2018-09-12T04:22:08.277Z,85.94
2018-09-12T04:24:00.967Z,85.94
2018-09-12T04:25:00.845Z,85.94
2018-09-12T04:26:53.541Z,86.22
2018-09-12T04:27:53.424Z,86.32
2018-09-12T04:29:46.109Z,85.89
2018-09-12T04:30:46.001Z,86.04
2018-09-12T04:32:38.697Z,86.04
2018-09-12T04:33:38.580Z,85.99
2018-09-12T04:35:31.262Z,86.22
2018-09-12T04:36:31.157Z,85.94
2018-09-12T04:38:23.856Z,86.04
2018-09-12T04:39:23.735Z,86.13
2018-09-12T04:41:16.446Z,86.32
2018-09-12T04:42:16.320Z,86.52
2018-09-12T04:44:09.000Z,86.71
2018-09-12T04:45:08.897Z,86.47
2018-09-12T04:47:01.595Z,86.61
2018-09-12T04:48:01.470Z,86.71
2018-09-12T04:49:54.152Z,86.99
2018-09-12T04:50:54.051Z,86.85
2018-09-12T04:52:46.762Z,86.76
2018-09-12T04:53:46.740Z,86.61
2018-09-12T04:55:39.537Z,87.38
2018-09-12T04:56:39.207Z,87.38
2018-09-12T04:58:31.980Z,87.57
2018-09-12T04:59:31.792Z,87.57
2018-09-12T05:01:24.477Z,87.09
2018-09-12T05:02:24.359Z,87.09
2018-09-12T05:04:17.041Z,87.57
2018-09-12T05:05:16.938Z,87.57
2018-09-12T05:07:09.640Z,87.57
2018-09-12T05:08:09.510Z,87.48
2018-09-12T05:10:02.308Z,87.67
2018-09-12T05:11:02.095Z,87.57
2018-09-12T05:12:54.783Z,87.38
2018-09-12T05:13:54.656Z,87.57
2018-09-12T05:15:47.345Z,86.90
2018-09-12T05:16:47.316Z,86.90
2018-09-12T05:18:39.931Z,86.71
2018-09-12T05:19:39.816Z,86.90
2018-09-12T05:21:32.508Z,86.80
2018-09-12T05:22:32.381Z,87.09
2018-09-12T05:24:25.063Z,87.09
2018-09-12T05:25:24.960Z,87.09
2018-09-12T05:27:17.655Z,86.90
2018-09-12T05:28:17.536Z,86.90
2018-09-12T05:30:10.223Z,87.67
2018-09-12T05:31:10.123Z,87.67
2018-09-12T05:33:02.811Z,87.19
2018-09-12T05:34:02.690Z,87.67
2018-09-12T05:35:55.374Z,87.57
2018-09-12T05:36:55.265Z,88.06
2018-09-12T05:38:47.964Z,87.76
2018-09-12T05:39:47.850Z,87.57
2018-09-12T05:41:40.552Z,88.44
2018-09-12T05:42:40.426Z,88.63
2018-09-12T05:44:33.106Z,88.57
2018-09-12T05:45:32.999Z,88.63
2018-09-12T05:47:25.701Z,88.48
2018-09-12T05:48:25.582Z,88.73
2018-09-12T05:50:18.310Z,88.82
2018-09-12T05:51:18.160Z,88.34
2018-09-12T05:53:10.854Z,88.63
2018-09-12T05:54:10.731Z,88.44
2018-09-12T05:56:03.415Z,88.19
2018-09-12T05:57:03.308Z,88.10
2018-09-12T05:58:55.997Z,88.19
2018-09-12T05:59:55.879Z,88.10
2018-09-12T06:01:48.576Z,88.06
2018-09-12T06:02:48.461Z,87.71
2018-09-12T06:04:41.146Z,87.90
2018-09-12T06:05:41.043Z,87.76
2018-09-12T06:07:33.737Z,88.00
2018-09-12T06:08:33.622Z,88.10
2018-09-12T06:10:26.291Z,88.19
2018-09-12T06:11:26.192Z,88.39
2018-09-12T06:13:18.885Z,88.77
2018-09-12T06:14:18.769Z,88.00
2018-09-12T06:16:11.458Z,87.71
2018-09-12T06:17:11.346Z,87.62
2018-09-12T06:19:04.042Z,88.00
2018-09-12T06:20:03.922Z,88.19
2018-09-12T06:21:56.615Z,88.00
2018-09-12T06:22:56.492Z,87.62
2018-09-12T06:24:49.173Z,87.62
2018-09-12T06:25:49.070Z,88.67
2018-09-12T06:27:41.766Z,88.67
2018-09-12T06:28:41.642Z,88.48
2018-09-12T06:30:34.324Z,88.10
2018-09-12T06:31:34.222Z,88.19
2018-09-12T06:33:26.925Z,87.81
2018-09-12T06:34:26.808Z,87.90
2018-09-12T06:36:19.480Z,88.48
2018-09-12T06:37:19.382Z,87.81
2018-09-12T06:39:12.078Z,87.90
2018-09-12T06:40:11.965Z,88.29
2018-09-12T06:42:04.655Z,88.19
2018-09-12T06:43:04.534Z,88.00
2018-09-12T06:44:57.220Z,87.13
2018-09-12T06:45:57.110Z,87.62
2018-09-12T06:47:49.810Z,86.85
2018-09-12T06:48:49.685Z,86.56
2018-09-12T06:50:42.370Z,86.46
2018-09-12T06:51:42.263Z,86.27
2018-09-12T06:53:34.961Z,86.36
2018-09-12T06:54:34.890Z,86.31
2018-09-12T06:56:27.539Z,85.93
2018-09-12T06:57:27.417Z,85.64
2018-09-12T06:59:20.094Z,85.35
2018-09-12T07:00:19.993Z,85.54
2018-09-12T07:02:12.689Z,84.97
2018-09-12T07:03:12.566Z,84.67
2018-09-12T07:05:05.250Z,84.77
2018-09-12T07:06:05.151Z,84.29
2018-09-12T07:07:57.837Z,84.53
2018-09-12T07:08:57.721Z,84.53
2018-09-12T07:10:50.398Z,85.16
2018-09-12T07:11:50.300Z,85.44
2018-09-12T07:13:42.993Z,84.91
2018-09-12T07:14:42.873Z,84.43
2018-09-12T07:16:35.575Z,82.49
2018-09-12T07:17:35.455Z,81.52
2018-09-12T07:19:28.138Z,82.01
2018-09-12T07:20:28.036Z,82.10
2018-09-12T07:22:20.734Z,81.62
2018-09-12T07:23:20.623Z,81.18
2018-09-12T07:25:13.796Z,80.31
2018-09-12T07:26:13.695Z,80.76
2018-09-12T07:28:06.521Z,80.89
2018-09-12T07:29:06.571Z,80.89
2018-09-12T07:30:58.951Z,80.16
2018-09-12T07:31:58.855Z,79.97
2018-09-12T07:33:52.049Z,78.56
2018-09-12T07:34:51.934Z,79.00
2018-09-12T07:36:45.126Z,78.42
2018-09-12T07:37:45.007Z,79.49
2018-09-12T07:39:37.700Z,79.68
2018-09-12T07:40:37.598Z,80.12
2018-09-12T07:42:30.294Z,79.97
2018-09-12T07:43:30.184Z,79.29
2018-09-12T07:45:22.867Z,80.02
2018-09-12T07:46:22.765Z,80.74
2018-09-12T07:48:16.030Z,80.16
2018-09-12T07:49:15.917Z,79.39
2018-09-12T07:51:09.106Z,79.77
2018-09-12T07:52:08.996Z,79.29
2018-09-12T07:54:02.199Z,79.49
2018-09-12T07:55:02.134Z,79.77
2018-09-12T07:56:54.781Z,79.00
2018-09-12T07:57:54.666Z,78.42
2018-09-12T07:59:47.353Z,79.68
2018-09-12T08:00:47.250Z,78.56
2018-09-12T08:02:39.950Z,78.75
2018-09-12T08:03:39.840Z,77.98
2018-09-12T08:05:32.521Z,77.88
2018-09-12T08:06:32.429Z,78.66
2018-09-12T08:08:25.617Z,78.56
2018-09-12T08:09:25.504Z,77.78
2018-09-12T08:11:18.190Z,78.61
2018-09-12T08:12:18.095Z,79.83
2018-09-12T08:14:10.786Z,80.99
2018-09-12T08:15:10.672Z,82.59
2018-09-12T08:17:03.933Z,82.39
2018-09-12T08:18:03.748Z,82.59
2018-09-12T08:19:56.428Z,83.45
2018-09-12T08:20:56.330Z,82.62
2018-09-12T08:22:49.525Z,81.95
2018-09-12T08:23:49.406Z,81.09
2018-09-12T08:25:42.089Z,80.26
2018-09-12T08:26:42.002Z,80.16
2018-09-12T08:28:34.692Z,80.93
2018-09-12T08:29:34.577Z,80.35
2018-09-12T08:31:27.268Z,80.74
2018-09-12T08:32:27.167Z,80.35
2018-09-12T08:34:20.355Z,80.60
2018-09-12T08:35:20.237Z,81.12
2018-09-12T08:37:12.941Z,80.26
2018-09-12T08:38:12.826Z,79.87
2018-09-12T08:40:06.018Z,78.85
2018-09-12T08:41:05.918Z,77.34
2018-09-12T08:42:59.122Z,76.95
2018-09-12T08:43:59.006Z,75.93
2018-09-12T08:45:51.688Z,75.54
2018-09-12T08:46:51.585Z,75.06
2018-09-12T08:48:44.291Z,74.96
2018-09-12T08:49:44.175Z,76.18
2018-09-12T08:51:36.882Z,77.11
2018-09-12T08:52:36.771Z,76.92
2018-09-12T08:54:29.449Z,76.82
2018-09-12T08:55:29.348Z,77.53
2018-09-12T08:57:22.055Z,77.25
2018-09-12T08:58:21.941Z,76.95
2018-09-12T09:00:15.125Z,76.76
2018-09-12T09:01:15.077Z,76.28
2018-09-12T09:03:07.719Z,76.95
2018-09-12T09:04:07.658Z,76.95
2018-09-12T09:06:00.293Z,76.37
2018-09-12T09:07:00.190Z,76.47
2018-09-12T09:08:52.893Z,77.59
2018-09-12T09:09:52.776Z,77.30
2018-09-12T09:11:46.031Z,78.08
2018-09-12T09:12:45.917Z,78.85
2018-09-12T09:14:38.596Z,78.81
2018-09-12T09:15:38.502Z,79.68
2018-09-12T09:17:31.204Z,79.39
2018-09-12T09:18:31.084Z,79.49
2018-09-12T09:20:23.766Z,78.81
2018-09-12T09:21:23.674Z,79.25
2018-09-12T09:23:16.859Z,80.12
2018-09-12T09:24:16.765Z,80.22
2018-09-12T09:26:09.428Z,80.22
2018-09-12T09:27:09.328Z,80.89
2018-09-12T09:29:02.030Z,80.89
2018-09-12T09:30:01.913Z,80.60
2018-09-12T09:31:54.621Z,81.47
2018-09-12T09:32:54.497Z,80.60
2018-09-12T09:34:47.695Z,80.79
2018-09-12T09:35:47.684Z,80.69
2018-09-12T09:37:40.767Z,79.97
2018-09-12T09:38:40.647Z,80.06
2018-09-12T09:40:33.825Z,80.12
2018-09-12T09:41:33.725Z,80.12
2018-09-12T09:43:26.567Z,79.68
2018-09-12T09:44:26.448Z,79.39
2018-09-12T09:46:19.136Z,79.24
2018-09-12T09:47:19.032Z,78.66
2018-09-12T09:49:12.231Z,78.52
2018-09-12T09:50:12.123Z,78.81
2018-09-12T09:52:04.820Z,78.33
2018-09-12T09:53:04.701Z,78.23
2018-09-12T09:54:57.409Z,77.01
2018-09-12T09:55:57.280Z,76.18
2018-09-12T09:57:50.487Z,75.70
2018-09-12T09:58:50.361Z,75.41
2018-09-12T10:00:43.053Z,75.16
2018-09-12T10:01:42.946Z,75.06
2018-09-12T10:03:35.645Z,74.96
2018-09-12T10:04:35.538Z,75.12
2018-09-12T10:06:28.218Z,74.48
2018-09-12T10:07:28.118Z,73.71
2018-09-12T10:09:20.826Z,73.32
2018-09-12T10:10:20.713Z,73.13
2018-09-12T10:12:13.912Z,73.46
2018-09-12T10:13:13.796Z,72.58
2018-09-12T10:15:06.480Z,72.62
2018-09-12T10:16:06.384Z,72.39
2018-09-12T10:17:59.576Z,72.78
2018-09-12T10:18:59.456Z,73.16
2018-09-12T10:20:52.147Z,73.61
2018-09-12T10:21:52.045Z,74.48
2018-09-12T10:23:45.242Z,74.83
2018-09-12T10:24:45.134Z,75.18
2018-09-12T10:26:37.812Z,76.53
2018-09-12T10:27:37.717Z,77.00
2018-09-12T10:29:30.418Z,80.68
2018-09-12T10:30:30.302Z,82.37
2018-09-12T10:32:22.996Z,83.72
2018-09-12T10:33:22.887Z,84.00
2018-09-12T10:35:15.563Z,84.21
2018-09-12T10:36:15.468Z,85.36
2018-09-12T10:38:08.163Z,85.65
2018-09-12T10:39:08.047Z,84.98
2018-09-12T10:41:01.239Z,85.89
2018-09-12T10:42:01.125Z,86.66
2018-09-12T10:43:53.833Z,86.13
2018-09-12T10:44:53.711Z,86.04
2018-09-12T10:46:46.388Z,85.89
2018-09-12T10:47:46.295Z,85.27
2018-09-12T10:49:38.985Z,85.41
2018-09-12T10:50:38.871Z,85.80
2018-09-12T10:52:31.573Z,85.51
2018-09-12T10:53:31.453Z,85.89
2018-09-12T10:55:24.134Z,85.03
2018-09-12T10:56:24.026Z,85.22
2018-09-12T10:58:16.721Z,84.94
2018-09-12T10:59:16.605Z,84.64
2018-09-12T11:01:09.288Z,84.36
2018-09-12T11:02:09.186Z,84.55
2018-09-12T11:04:01.879Z,84.26
2018-09-12T11:05:01.765Z,84.17
2018-09-12T11:06:54.511Z,84.64
2018-09-12T11:07:54.390Z,84.94
2018-09-12T11:09:47.122Z,85.47
2018-09-12T11:10:46.958Z,85.66
2018-09-12T11:12:39.671Z,84.36
2018-09-12T11:13:39.521Z,84.26
2018-09-12T11:15:32.238Z,83.63
2018-09-12T11:16:32.111Z,82.86
2018-09-12T11:18:24.810Z,82.09
2018-09-12T11:19:24.687Z,82.29
2018-09-12T11:21:17.374Z,83.15
2018-09-12T11:22:17.264Z,83.25
2018-09-12T11:24:09.968Z,82.38
2018-09-12T11:25:09.848Z,83.30
2018-09-12T11:27:02.533Z,83.87
2018-09-12T11:28:02.432Z,83.20
2018-09-12T11:29:55.136Z,82.86
2018-09-12T11:30:55.017Z,82.73
2018-09-12T11:32:47.710Z,82.67
2018-09-12T11:33:47.588Z,82.29
2018-09-12T11:35:40.278Z,82.19
2018-09-12T11:36:40.175Z,81.81
2018-09-12T11:38:32.872Z,81.07
2018-09-12T11:39:32.757Z,80.30
2018-09-12T11:41:25.449Z,80.30
2018-09-12T11:42:25.350Z,79.44
2018-09-12T11:44:18.053Z,79.05
2018-09-12T11:45:17.931Z,78.86
2018-09-12T11:47:10.630Z,78.44
2018-09-12T11:48:10.506Z,79.36
2018-09-12T11:50:03.190Z,80.42
2018-09-12T11:51:03.093Z,80.51
2018-09-12T11:52:55.789Z,81.67
2018-09-12T11:53:55.673Z,81.38
2018-09-12T11:55:48.354Z,82.97
2018-09-12T11:56:48.259Z,84.18
2018-09-12T11:58:41.144Z,86.10
2018-09-12T11:59:41.056Z,87.88
2018-09-12T12:01:33.787Z,87.78
2018-09-12T12:02:33.658Z,88.26
2018-09-12T12:04:26.361Z,88.22
2018-09-12T12:05:26.241Z,88.07
2018-09-12T12:07:18.940Z,87.40
2018-09-12T12:08:18.818Z,86.63
2018-09-12T12:10:11.554Z,85.33
2018-09-12T12:11:11.391Z,84.85
2018-09-12T12:13:04.089Z,84.18
2018-09-12T12:14:04.101Z,83.98
2018-09-12T12:15:56.704Z,84.47
2018-09-12T12:16:56.616Z,84.37
2018-09-12T12:18:49.340Z,84.12
2018-09-12T12:19:49.196Z,83.89
2018-09-12T12:21:41.949Z,84.37
2018-09-12T12:22:41.812Z,83.51
2018-09-12T12:24:34.558Z,84.27
2018-09-12T12:25:34.423Z,84.27
2018-09-12T12:27:27.129Z,84.56
2018-09-12T12:28:27.100Z,84.37
2018-09-12T12:30:19.655Z,85.33
2018-09-12T12:31:19.536Z,84.81
2018-09-12T12:33:12.266Z,85.38
2018-09-12T12:34:12.111Z,86.05
2018-09-12T12:36:04.832Z,86.05
2018-09-12T12:37:04.830Z,85.77
2018-09-12T12:38:57.412Z,86.54
2018-09-12T12:39:57.292Z,86.72
2018-09-12T12:41:50.042Z,87.49
2018-09-12T12:42:49.900Z,87.78
2018-09-12T12:44:42.599Z,88.79
2018-09-12T12:45:42.508Z,87.93
2018-09-12T12:47:35.241Z,88.70
2018-09-12T12:48:35.088Z,88.22
2018-09-12T12:50:27.937Z,88.02
2018-09-12T12:51:27.685Z,88.98
2018-09-12T12:53:20.406Z,89.65
2018-09-12T12:54:20.265Z,88.98
2018-09-12T12:56:12.978Z,91.09
2018-09-12T12:57:12.890Z,92.34
2018-09-12T12:59:05.663Z,92.72
2018-09-12T13:00:05.505Z,93.49
2018-09-12T13:01:58.189Z,94.54
2018-09-12T13:02:58.081Z,95.70
2018-09-12T13:04:50.784Z,95.51
2018-09-12T13:05:50.659Z,94.26
2018-09-12T13:07:43.355Z,92.91
2018-09-12T13:08:43.227Z,93.68
2018-09-12T13:10:36.039Z,92.54
2018-09-12T13:11:35.806Z,93.21
2018-09-12T13:13:28.536Z,91.48
2018-09-12T13:14:28.452Z,91.86
2018-09-12T13:16:21.126Z,92.34
2018-09-12T13:17:21.039Z,92.15
2018-09-12T13:19:13.695Z,93.01
2018-09-12T13:20:13.578Z,93.40
2018-09-12T13:22:06.262Z,92.82
2018-09-12T13:23:06.151Z,92.15
2018-09-12T13:24:58.870Z,92.82
2018-09-12T13:25:58.733Z,92.54
2018-09-12T13:27:51.571Z,92.72
2018-09-12T13:28:51.347Z,91.48
2018-09-12T13:30:44.062Z,92.15
2018-09-12T13:31:43.956Z,92.05
2018-09-12T13:33:36.647Z,92.39
2018-09-12T13:34:36.541Z,92.44
2018-09-12T13:36:29.228Z,93.01
2018-09-12T13:37:29.115Z,92.44
2018-09-12T13:39:21.912Z,93.21
2018-09-12T13:40:21.770Z,93.21
2018-09-12T13:42:14.615Z,93.49
2018-09-12T13:43:14.395Z,94.84
2018-09-12T13:45:07.633Z,93.59
2018-09-12T13:46:07.496Z,93.40
2018-09-12T13:48:00.193Z,94.84
2018-09-12T13:49:00.068Z,94.84
2018-09-12T13:50:52.751Z,94.40
2018-09-12T13:51:52.638Z,96.03
2018-09-12T13:53:45.341Z,96.70
2018-09-12T13:54:45.220Z,96.51
2018-09-12T13:56:37.972Z,98.62
2018-09-12T13:57:37.789Z,97.85
2018-09-12T13:59:30.492Z,97.81
2018-09-12T14:00:30.359Z,97.95
2018-09-12T14:02:23.050Z,98.43
2018-09-12T14:03:23.001Z,98.14
2018-09-12T14:05:16.123Z,97.66
2018-09-12T14:06:16.001Z,97.23
2018-09-12T14:08:08.695Z,97.14
2018-09-12T14:09:08.570Z,95.94
2018-09-12T14:11:01.254Z,96.66
2018-09-12T14:12:01.148Z,96.75
2018-09-12T14:13:53.841Z,96.66
2018-09-12T14:14:53.716Z,96.75
2018-09-12T14:16:46.390Z,97.04
2018-09-12T14:17:46.295Z,97.33
2018-09-12T14:19:38.984Z,95.98
2018-09-12T14:20:38.862Z,95.79
2018-09-12T14:22:31.539Z,95.79
2018-09-12T14:23:31.442Z,95.79
2018-09-12T14:25:24.131Z,95.98
2018-09-12T14:26:24.017Z,96.08
2018-09-12T14:28:16.712Z,96.08
2018-09-12T14:29:16.593Z,95.98
2018-09-12T14:31:09.270Z,97.14
2018-09-12T14:32:09.175Z,97.47
2018-09-12T14:34:01.853Z,97.52
2018-09-12T14:35:01.736Z,97.66
2018-09-12T14:36:54.420Z,98.28
2018-09-12T14:37:54.609Z,97.04
2018-09-12T14:39:47.584Z,97.90
2018-09-12T14:40:47.152Z,97.14
2018-09-12T14:42:39.628Z,95.31
2018-09-12T14:43:39.517Z,96.03
2018-09-12T14:45:32.161Z,94.59
2018-09-12T14:46:32.041Z,94.40
2018-09-12T14:48:24.733Z,94.21
2018-09-12T14:49:24.619Z,94.12
2018-09-12T14:51:17.293Z,93.54
2018-09-12T14:52:17.184Z,94.02
2018-09-12T14:54:09.884Z,94.21
2018-09-12T14:55:09.767Z,94.21
2018-09-12T14:57:02.451Z,93.63
2018-09-12T14:58:02.377Z,93.35
2018-09-12T14:59:55.048Z,94.12
2018-09-12T15:00:54.928Z,93.63
2018-09-12T15:02:47.604Z,93.25
2018-09-12T15:03:47.501Z,93.54
2018-09-12T15:05:40.197Z,93.44
2018-09-12T15:06:40.074Z,93.25
2018-09-12T15:08:32.771Z,93.44
2018-09-12T15:09:32.653Z,94.21
2018-09-12T15:11:25.327Z,92.58
2018-09-12T15:12:25.226Z,92.58
2018-09-12T15:14:18.413Z,92.48
2018-09-12T15:15:18.295Z,92.48
2018-09-12T15:17:10.986Z,91.81
2018-09-12T15:18:10.871Z,91.72
2018-09-12T15:20:03.562Z,92.63
2018-09-12T15:21:03.444Z,91.28
2018-09-12T15:22:56.134Z,91.19
2018-09-12T15:23:56.035Z,89.94
2018-09-12T15:25:48.726Z,89.65
2018-09-12T15:26:48.626Z,89.55
2018-09-12T15:28:41.306Z,90.52
2018-09-12T15:29:41.189Z,91.09
2018-09-12T15:31:33.864Z,91.19
2018-09-12T15:32:33.822Z,91.76
2018-09-12T15:34:26.461Z,89.55
2018-09-12T15:35:26.339Z,90.13
2018-09-12T15:37:19.064Z,91.05
2018-09-12T15:38:18.975Z,92.96
2018-09-12T15:40:11.648Z,92.00
2018-09-12T15:41:11.533Z,93.10
2018-09-12T15:43:04.206Z,90.80
2018-09-12T15:44:04.106Z,90.03
2018-09-12T15:45:56.798Z,90.03
2018-09-12T15:46:56.677Z,90.80
2018-09-12T15:48:49.380Z,90.13
2018-09-12T15:49:49.260Z,90.52
2018-09-12T15:51:41.937Z,90.08
2018-09-12T15:52:41.829Z,90.75
2018-09-12T15:54:34.517Z,91.72
2018-09-12T15:55:34.403Z,91.81
2018-09-12T15:57:27.077Z,92.48
2018-09-12T15:58:26.977Z,92.96
2018-09-12T16:00:19.671Z,93.15
2018-09-12T16:01:19.553Z,92.44
2018-09-12T16:03:12.233Z,93.44
2018-09-12T16:04:12.130Z,93.06
2018-09-12T16:06:05.812Z,92.10
2018-09-12T16:07:05.688Z,92.77
2018-09-12T16:08:58.376Z,93.44
2018-09-12T16:09:58.330Z,92.10
2018-09-12T16:11:50.977Z,92.48
2018-09-12T16:12:51.010Z,92.63
2018-09-12T16:14:43.564Z,93.97
2018-09-12T16:15:43.443Z,93.49
2018-09-12T16:17:36.117Z,93.40
2018-09-12T16:18:36.010Z,93.78
2018-09-12T16:20:28.706Z,93.97
2018-09-12T16:21:28.684Z,94.17
2018-09-12T16:23:21.265Z,93.78
2018-09-12T16:24:21.155Z,94.35
2018-09-12T16:26:13.911Z,94.35
2018-09-12T16:27:13.793Z,93.88
2018-09-12T16:29:06.492Z,93.88
2018-09-12T16:30:06.365Z,94.07
2018-09-12T16:31:59.045Z,94.74
2018-09-12T16:32:59.020Z,94.54
2018-09-12T16:34:51.636Z,94.17
2018-09-12T16:35:51.506Z,94.07
2018-09-12T16:37:44.194Z,94.93
2018-09-12T16:38:44.086Z,94.84
2018-09-12T16:40:36.783Z,94.93
2018-09-12T16:41:36.657Z,95.03
2018-09-12T16:43:29.830Z,95.60
2018-09-12T16:44:29.730Z,95.41
2018-09-12T16:46:22.424Z,94.84
2018-09-12T16:47:22.311Z,95.12
2018-09-12T16:49:14.996Z,94.84
2018-09-12T16:50:14.868Z,94.84
2018-09-12T16:52:07.558Z,95.51
2018-09-12T16:53:07.450Z,95.41
2018-09-12T16:55:00.146Z,95.60
2018-09-12T16:56:00.021Z,94.93
2018-09-12T16:57:52.701Z,95.03
2018-09-12T16:58:52.602Z,94.93
2018-09-12T17:00:45.305Z,95.60
2018-09-12T17:01:45.179Z,95.51
2018-09-12T17:03:37.860Z,96.66
2018-09-12T17:04:37.758Z,96.94
2018-09-12T17:06:30.442Z,95.79
2018-09-12T17:07:30.324Z,96.18
2018-09-12T17:09:23.013Z,95.98
2018-09-12T17:10:22.896Z,95.98
2018-09-12T17:12:15.603Z,96.56
2018-09-12T17:13:15.499Z,96.47
2018-09-12T17:15:08.186Z,96.61
2018-09-12T17:16:08.069Z,96.51
2018-09-12T17:18:00.743Z,96.99
2018-09-12T17:19:00.635Z,96.75
2018-09-12T17:20:53.324Z,97.66
2018-09-12T17:21:53.208Z,96.56
2018-09-12T17:23:45.896Z,97.23
2018-09-12T17:24:45.770Z,97.04
2018-09-12T17:26:38.452Z,96.47
2018-09-12T17:27:38.344Z,96.61
2018-09-12T17:29:31.039Z,96.42
2018-09-12T17:30:30.922Z,96.80
2018-09-12T17:32:23.652Z,96.66
2018-09-12T17:33:23.493Z,97.42
2018-09-12T17:35:16.182Z,97.33
2018-09-12T17:36:16.064Z,97.04
2018-09-12T17:38:08.781Z,97.61
2018-09-12T17:39:08.630Z,97.71
2018-09-12T17:41:01.542Z,97.56
2018-09-12T17:42:01.221Z,97.56
2018-09-12T17:43:53.940Z,97.38
2018-09-12T17:44:53.777Z,97.47
2018-09-12T17:46:46.506Z,97.23
2018-09-12T17:47:46.406Z,97.23
2018-09-12T17:49:39.628Z,97.61
2018-09-12T17:50:39.471Z,97.28
2018-09-12T17:52:32.145Z,97.23
2018-09-12T17:53:32.038Z,97.04
2018-09-12T17:55:24.746Z,97.38
2018-09-12T17:56:24.620Z,97.18
2018-09-12T17:58:17.294Z,96.03
2018-09-12T17:59:17.189Z,96.85
2018-09-12T18:01:09.887Z,96.70
2018-09-12T18:02:09.761Z,96.18
2018-09-12T18:04:02.463Z,95.65
2018-09-12T18:05:02.341Z,94.98
2018-09-12T18:06:55.016Z,94.50
2018-09-12T18:07:54.908Z,94.21
2018-09-12T18:09:47.641Z,94.21
2018-09-12T18:10:47.540Z,94.31
2018-09-12T18:12:40.157Z,94.31
2018-09-12T18:13:40.054Z,94.21
2018-09-12T18:15:32.790Z,93.93
2018-09-12T18:16:32.624Z,93.83
2018-09-12T18:18:25.302Z,93.63
2018-09-12T18:19:25.219Z,94.50
2018-09-12T18:21:17.891Z,93.16
2018-09-12T18:22:17.762Z,93.73
2018-09-12T18:24:10.467Z,93.73
2018-09-12T18:25:10.343Z,94.02
2018-09-12T18:27:03.015Z,93.44
2018-09-12T18:28:02.912Z,93.26
2018-09-12T18:29:55.609Z,93.54
2018-09-12T18:30:55.671Z,93.16
2018-09-12T18:32:48.169Z,94.17
2018-09-12T18:33:48.210Z,93.40
2018-09-12T18:35:40.753Z,92.87
2018-09-12T18:36:40.654Z,92.68
2018-09-12T18:38:33.315Z,93.26
2018-09-12T18:39:33.221Z,92.77
2018-09-12T18:41:25.938Z,93.11
2018-09-12T18:42:25.781Z,93.59
2018-09-12T18:44:18.716Z,93.63
2018-09-12T18:45:18.425Z,92.68
2018-09-12T18:47:11.031Z,92.87
2018-09-12T18:48:10.919Z,93.30
2018-09-12T18:50:03.620Z,92.82
2018-09-12T18:51:03.505Z,92.35
2018-09-12T18:52:56.189Z,93.02
2018-09-12T18:53:56.129Z,93.30
2018-09-12T18:55:48.760Z,93.21
2018-09-12T18:56:48.639Z,93.30
2018-09-12T18:58:41.315Z,92.73
2018-09-12T18:59:41.209Z,93.02
2018-09-12T19:01:33.898Z,92.63
2018-09-12T19:02:33.778Z,92.73
2018-09-12T19:04:26.465Z,93.11
2018-09-12T19:05:26.361Z,93.11
2018-09-12T19:07:19.102Z,93.59
2018-09-12T19:08:18.940Z,93.88
2018-09-12T19:10:11.772Z,93.78
2018-09-12T19:11:11.514Z,94.07
2018-09-12T19:13:04.199Z,93.78
2018-09-12T19:14:04.082Z,93.21
2018-09-12T19:15:56.768Z,93.21
2018-09-12T19:16:56.650Z,93.11
2018-09-12T19:18:49.480Z,92.82
2018-09-12T19:19:49.255Z,93.21
2018-09-12T19:21:41.911Z,93.11
2018-09-12T19:22:41.784Z,93.11
2018-09-12T19:24:34.469Z,93.59
2018-09-12T19:25:34.357Z,93.59
2018-09-12T19:27:27.048Z,94.07
2018-09-12T19:28:26.929Z,93.88
2018-09-12T19:30:19.637Z,93.88
2018-09-12T19:31:19.500Z,94.07
2018-09-12T19:33:12.177Z,93.98
2018-09-12T19:34:12.071Z,94.07
2018-09-12T19:36:04.864Z,93.78
2018-09-12T19:37:04.649Z,93.40
2018-09-12T19:38:57.319Z,94.07
2018-09-12T19:39:57.210Z,93.98
2018-09-12T19:41:49.933Z,94.26
2018-09-12T19:42:49.776Z,94.17
2018-09-12T19:44:42.468Z,93.78
2018-09-12T19:45:42.354Z,93.98
2018-09-12T19:47:35.024Z,94.26
2018-09-12T19:48:35.180Z,94.17
2018-09-12T19:50:27.881Z,94.84
2018-09-12T19:51:27.681Z,94.93
2018-09-12T19:53:20.356Z,95.12
2018-09-12T19:54:20.246Z,94.74
2018-09-12T19:56:12.936Z,95.12
2018-09-12T19:57:12.811Z,95.03
2018-09-12T19:59:05.501Z,95.51
2018-09-12T20:00:05.396Z,94.45
2018-09-12T20:01:58.091Z,95.03
2018-09-12T20:02:57.966Z,95.12
2018-09-12T20:04:50.667Z,94.69
2018-09-12T20:05:50.539Z,95.03
2018-09-12T20:07:43.222Z,94.26
2018-09-12T20:08:43.112Z,94.26
2018-09-12T20:10:35.820Z,94.02
2018-09-12T20:11:35.688Z,94.21
2018-09-12T20:13:28.362Z,94.40
2018-09-12T20:14:28.371Z,94.89
2018-09-12T20:16:20.950Z,94.98
2018-09-12T20:17:20.826Z,94.31
2018-09-12T20:19:13.498Z,94.69
2018-09-12T20:20:13.393Z,94.60
2018-09-12T20:22:06.092Z,94.02
2018-09-12T20:23:05.976Z,94.12
2018-09-12T20:24:58.789Z,94.21
2018-09-12T20:25:58.547Z,94.02
2018-09-12T20:27:51.267Z,94.21
2018-09-12T20:28:51.166Z,94.12
2018-09-12T20:30:43.863Z,94.89
2018-09-12T20:31:43.741Z,94.60
2018-09-12T20:33:36.413Z,95.07
2018-09-12T20:34:36.303Z,94.69
2018-09-12T20:36:29.173Z,94.60
2018-09-12T20:37:28.929Z,94.79
2018-09-12T20:39:21.551Z,94.50
2018-09-12T20:40:21.444Z,94.79
2018-09-12T20:42:14.631Z,94.40
2018-09-12T20:43:14.504Z,94.50
2018-09-12T20:45:07.196Z,94.79
2018-09-12T20:46:07.079Z,94.98
2018-09-12T20:47:59.905Z,94.79
2018-09-12T20:48:59.662Z,95.27
2018-09-12T20:50:52.355Z,95.56
2018-09-12T20:51:52.232Z,95.65
2018-09-12T20:53:44.907Z,95.17
2018-09-12T20:54:44.797Z,94.50
2018-09-12T20:56:37.489Z,94.79
2018-09-12T20:57:37.374Z,94.79
2018-09-12T20:59:30.039Z,94.12
2018-09-12T21:00:29.938Z,93.83
2018-09-12T21:02:22.629Z,93.83
2018-09-12T21:03:22.499Z,94.02
2018-09-12T21:05:15.196Z,94.02
2018-09-12T21:06:15.265Z,93.16
2018-09-12T21:08:07.752Z,92.97
2018-09-12T21:09:07.647Z,92.68
2018-09-12T21:11:00.390Z,92.87
2018-09-12T21:12:00.206Z,92.21
2018-09-12T21:13:52.882Z,92.83
2018-09-12T21:14:52.768Z,92.40
2018-09-12T21:16:45.468Z,92.92
2018-09-12T21:17:45.349Z,92.01
2018-09-12T21:19:38.517Z,92.06
2018-09-12T21:20:38.413Z,92.58
2018-09-12T21:22:31.097Z,92.21
2018-09-12T21:23:30.980Z,92.25
2018-09-12T21:25:23.669Z,92.25
2018-09-12T21:26:23.541Z,92.01
2018-09-12T21:28:16.214Z,92.40
2018-09-12T21:29:16.111Z,91.82
2018-09-12T21:31:08.804Z,91.82
2018-09-12T21:32:08.682Z,91.68
2018-09-12T21:34:01.850Z,92.11
2018-09-12T21:35:01.743Z,91.63
2018-09-12T21:36:54.433Z,92.16
2018-09-12T21:37:54.315Z,92.16
2018-09-12T21:39:46.985Z,92.06
2018-09-12T21:40:46.885Z,92.49
2018-09-12T21:42:39.573Z,92.68
2018-09-12T21:43:39.452Z,92.58
2018-09-12T21:45:32.144Z,92.11
2018-09-12T21:46:32.014Z,92.21
2018-09-12T21:48:24.692Z,92.21
2018-09-12T21:49:24.581Z,92.40
2018-09-12T21:51:17.273Z,92.49
2018-09-12T21:52:17.157Z,92.49
2018-09-12T21:54:10.317Z,92.44
2018-09-12T21:55:10.207Z,92.21
2018-09-12T21:57:02.906Z,92.40
2018-09-12T21:58:02.784Z,92.21
2018-09-12T21:59:55.471Z,92.40
